createdAt,value
2022-10-30T00:00:24.197Z,99.99
2022-10-30T00:01:24.302Z,99.99
2022-10-30T00:02:24.236Z,99.99
2022-10-30T00:03:24.128Z,99.99
2022-10-30T00:04:24.103Z,99.99
2022-10-30T00:05:24.089Z,99.99
2022-10-30T00:06:24.060Z,99.99
2022-10-30T00:07:24.038Z,99.99
2022-10-30T00:08:24.024Z,99.99
2022-10-30T00:09:24.006Z,99.99
2022-10-30T00:10:23.987Z,99.99
2022-10-30T00:11:23.964Z,99.99
2022-10-30T00:12:23.947Z,99.99
2022-10-30T00:13:23.913Z,99.99
2022-10-30T00:14:23.890Z,99.99
2022-10-30T00:15:23.863Z,99.99
2022-10-30T00:16:23.853Z,99.99
2022-10-30T00:17:23.830Z,99.99
2022-10-30T00:18:23.806Z,99.99
2022-10-30T00:19:23.780Z,99.99
2022-10-30T00:20:23.763Z,99.99
2022-10-30T00:21:23.735Z,99.99
2022-10-30T00:22:23.712Z,99.99
2022-10-30T00:23:23.692Z,99.99
2022-10-30T00:24:23.678Z,99.99
2022-10-30T00:25:23.649Z,99.99
2022-10-30T00:26:23.625Z,99.99
2022-10-30T00:27:23.604Z,99.99
2022-10-30T00:28:23.582Z,99.99
2022-10-30T00:29:23.556Z,99.99
2022-10-30T00:30:23.551Z,99.99
2022-10-30T00:31:23.535Z,99.99
2022-10-30T00:32:23.506Z,99.99
2022-10-30T00:33:23.473Z,99.99
2022-10-30T00:34:23.461Z,99.99
2022-10-30T00:35:23.431Z,99.99
2022-10-30T00:36:23.423Z,99.99
2022-10-30T00:37:23.394Z,99.99
2022-10-30T00:38:23.381Z,99.99
2022-10-30T00:39:23.384Z,99.99
2022-10-30T00:40:23.334Z,99.99
2022-10-30T00:41:23.308Z,99.99
2022-10-30T00:42:23.290Z,99.99
2022-10-30T00:43:23.255Z,99.99
2022-10-30T00:44:23.252Z,99.99
2022-10-30T00:45:23.219Z,99.99
2022-10-30T00:46:23.206Z,99.99
2022-10-30T00:47:23.183Z,99.99
2022-10-30T00:48:23.153Z,99.99
2022-10-30T00:49:23.131Z,99.99
2022-10-30T00:50:23.246Z,99.99
2022-10-30T00:51:23.084Z,99.99
2022-10-30T00:52:23.057Z,99.99
2022-10-30T00:53:23.035Z,99.99
2022-10-30T00:54:23.014Z,99.99
2022-10-30T00:55:23.004Z,99.99
2022-10-30T00:56:22.984Z,99.99
2022-10-30T00:57:22.960Z,99.99
2022-10-30T00:58:22.940Z,99.99
2022-10-30T00:59:22.903Z,99.99
2022-10-30T01:00:22.888Z,99.99
2022-10-30T01:01:23.054Z,99.99
2022-10-30T01:02:22.980Z,99.99
2022-10-30T01:03:22.817Z,99.99
2022-10-30T01:04:27.393Z,99.99
2022-10-30T01:05:22.781Z,99.99
2022-10-30T01:06:22.750Z,99.99
2022-10-30T01:07:22.734Z,99.99
2022-10-30T01:08:22.768Z,99.99
2022-10-30T01:09:22.687Z,99.99
2022-10-30T01:10:22.701Z,99.99
2022-10-30T01:11:22.643Z,99.99
2022-10-30T01:12:22.621Z,99.99
2022-10-30T01:13:22.602Z,99.99
2022-10-30T01:14:22.568Z,99.99
2022-10-30T01:15:22.554Z,99.99
2022-10-30T01:16:22.529Z,99.99
2022-10-30T01:17:22.505Z,99.99
2022-10-30T01:18:22.482Z,99.99
2022-10-30T01:19:22.462Z,99.99
2022-10-30T01:20:22.460Z,99.99
2022-10-30T01:21:22.421Z,99.99
2022-10-30T01:22:22.423Z,99.99
2022-10-30T01:23:22.376Z,99.99
2022-10-30T01:24:22.351Z,99.99
2022-10-30T01:25:22.323Z,99.99
2022-10-30T01:26:22.313Z,99.99
2022-10-30T01:27:22.281Z,99.99
2022-10-30T01:28:22.262Z,99.99
2022-10-30T01:29:22.249Z,99.99
2022-10-30T01:30:22.238Z,99.99
2022-10-30T01:31:22.200Z,99.99
2022-10-30T01:32:22.180Z,99.99
2022-10-30T01:33:22.157Z,99.99
2022-10-30T01:34:22.133Z,99.99
2022-10-30T01:35:22.127Z,99.99
2022-10-30T01:36:22.081Z,99.99
2022-10-30T01:37:22.070Z,99.99
2022-10-30T01:38:22.042Z,99.99
2022-10-30T01:39:22.017Z,99.99
2022-10-30T01:40:22.002Z,99.99
2022-10-30T01:41:21.972Z,99.99
2022-10-30T01:42:21.947Z,99.99
2022-10-30T01:43:21.932Z,99.99
2022-10-30T01:44:21.905Z,99.99
2022-10-30T01:45:21.881Z,99.99
2022-10-30T01:46:21.876Z,99.99
2022-10-30T01:47:21.851Z,99.99
2022-10-30T01:48:21.817Z,99.99
2022-10-30T01:50:21.769Z,99.99
2022-10-30T01:51:21.749Z,99.99
2022-10-30T01:52:21.725Z,99.99
2022-10-30T01:53:21.733Z,99.99
2022-10-30T01:54:21.688Z,99.99
2022-10-30T01:55:21.671Z,99.99
2022-10-30T01:56:21.642Z,99.99
2022-10-30T01:57:21.627Z,99.99
2022-10-30T01:58:21.594Z,99.99
2022-10-30T01:59:21.571Z,99.99
2022-10-30T02:00:24.280Z,99.99
2022-10-30T02:01:21.648Z,99.99
2022-10-30T02:02:21.713Z,99.99
2022-10-30T02:03:21.486Z,99.99
2022-10-30T02:04:21.459Z,99.99
2022-10-30T02:05:21.450Z,99.99
2022-10-30T02:06:21.416Z,99.99
2022-10-30T02:07:21.411Z,99.99
2022-10-30T02:08:21.371Z,99.99
2022-10-30T02:09:21.348Z,99.99
2022-10-30T02:10:21.344Z,99.99
2022-10-30T02:11:21.307Z,99.99
2022-10-30T02:12:21.286Z,99.99
2022-10-30T02:13:21.257Z,99.99
2022-10-30T02:14:21.245Z,99.99
2022-10-30T02:15:21.222Z,99.99
2022-10-30T02:16:21.198Z,99.99
2022-10-30T02:17:21.187Z,99.99
2022-10-30T02:18:21.164Z,99.99
2022-10-30T02:19:21.139Z,99.99
2022-10-30T02:20:21.101Z,99.99
2022-10-30T02:21:21.083Z,99.99
2022-10-30T02:22:21.137Z,99.99
2022-10-30T02:23:21.058Z,99.99
2022-10-30T02:24:21.041Z,99.99
2022-10-30T02:25:21.024Z,99.99
2022-10-30T02:26:20.982Z,99.99
2022-10-30T02:27:20.948Z,99.99
2022-10-30T02:28:20.925Z,99.99
2022-10-30T02:29:20.901Z,99.99
2022-10-30T02:30:20.879Z,99.99
2022-10-30T02:31:20.876Z,99.99
2022-10-30T02:32:20.840Z,99.99
2022-10-30T02:33:20.835Z,99.99
2022-10-30T02:34:20.799Z,99.99
2022-10-30T02:35:20.768Z,99.99
2022-10-30T02:36:20.745Z,99.99
2022-10-30T02:37:20.720Z,99.99
2022-10-30T02:38:20.699Z,99.99
2022-10-30T02:39:20.683Z,99.99
2022-10-30T02:40:20.658Z,99.99
2022-10-30T02:41:20.633Z,99.99
2022-10-30T02:42:20.649Z,99.99
2022-10-30T02:43:20.588Z,99.99
2022-10-30T02:44:20.571Z,99.99
2022-10-30T02:45:20.545Z,99.99
2022-10-30T02:46:20.524Z,99.99
2022-10-30T02:47:20.501Z,99.99
2022-10-30T02:48:20.476Z,99.99
2022-10-30T02:49:20.462Z,99.99
2022-10-30T02:50:20.432Z,99.99
2022-10-30T02:51:20.413Z,99.99
2022-10-30T02:52:20.394Z,99.99
2022-10-30T02:53:20.365Z,99.99
2022-10-30T02:54:20.345Z,99.99
2022-10-30T02:55:20.322Z,99.99
2022-10-30T02:56:20.297Z,99.99
2022-10-30T02:57:20.278Z,99.99
2022-10-30T02:58:20.254Z,99.99
2022-10-30T02:59:20.235Z,99.99
2022-10-30T03:00:20.219Z,99.99
2022-10-30T03:01:20.308Z,99.99
2022-10-30T03:02:20.431Z,99.99
2022-10-30T03:03:23.157Z,99.99
2022-10-30T03:04:20.128Z,99.99
2022-10-30T03:05:20.091Z,99.99
2022-10-30T03:06:20.081Z,99.99
2022-10-30T03:07:20.050Z,99.99
2022-10-30T03:08:20.025Z,99.99
2022-10-30T03:09:20.004Z,99.99
2022-10-30T03:10:19.990Z,99.99
2022-10-30T03:11:19.958Z,99.99
2022-10-30T03:12:19.937Z,99.99
2022-10-30T03:13:19.926Z,99.99
2022-10-30T03:14:19.897Z,99.99
2022-10-30T03:15:19.891Z,99.99
2022-10-30T03:16:19.856Z,99.99
2022-10-30T03:17:19.835Z,99.99
2022-10-30T03:18:19.811Z,99.99
2022-10-30T03:19:19.782Z,99.99
2022-10-30T03:20:19.758Z,99.99
2022-10-30T03:21:19.738Z,99.99
2022-10-30T03:22:19.731Z,99.99
2022-10-30T03:23:19.692Z,99.99
2022-10-30T03:24:19.678Z,99.99
2022-10-30T03:25:19.648Z,99.99
2022-10-30T03:26:19.637Z,99.99
2022-10-30T03:27:19.611Z,99.99
2022-10-30T03:28:19.583Z,99.99
2022-10-30T03:29:19.560Z,99.99
2022-10-30T03:30:19.554Z,99.99
2022-10-30T03:31:19.516Z,99.99
2022-10-30T03:32:19.539Z,99.99
2022-10-30T03:33:19.471Z,99.99
2022-10-30T03:34:19.444Z,99.99
2022-10-30T03:35:19.427Z,99.99
2022-10-30T03:36:19.421Z,99.99
2022-10-30T03:37:19.383Z,99.99
2022-10-30T03:38:19.369Z,99.99
2022-10-30T03:39:19.331Z,99.99
2022-10-30T03:40:19.316Z,99.99
2022-10-30T03:41:19.306Z,99.99
2022-10-30T03:42:19.259Z,99.99
2022-10-30T03:43:19.245Z,99.99
2022-10-30T03:44:19.223Z,99.99
2022-10-30T03:45:19.198Z,99.99
2022-10-30T03:46:19.200Z,99.99
2022-10-30T03:47:19.158Z,99.99
2022-10-30T03:48:19.164Z,99.99
2022-10-30T03:49:19.107Z,99.99
2022-10-30T03:50:19.089Z,99.99
2022-10-30T03:51:19.101Z,99.99
2022-10-30T03:52:19.059Z,99.99
2022-10-30T03:53:19.030Z,99.99
2022-10-30T03:54:19.025Z,99.99
2022-10-30T03:55:18.979Z,99.99
2022-10-30T03:56:18.957Z,99.99
2022-10-30T03:57:18.928Z,99.99
2022-10-30T03:58:18.932Z,99.99
2022-10-30T03:59:18.894Z,99.99
2022-10-30T04:00:18.869Z,99.99
2022-10-30T04:01:18.990Z,99.99
2022-10-30T04:03:18.820Z,99.99
2022-10-30T04:04:18.788Z,99.99
2022-10-30T04:05:18.760Z,99.99
2022-10-30T04:06:18.742Z,99.99
2022-10-30T04:07:18.730Z,99.99
2022-10-30T04:08:18.704Z,99.99
2022-10-30T04:09:20.662Z,99.99
2022-10-30T04:10:21.150Z,99.99
2022-10-30T04:11:18.679Z,99.99
2022-10-30T04:12:18.597Z,99.99
2022-10-30T04:13:18.570Z,99.99
2022-10-30T04:14:18.548Z,99.99
2022-10-30T04:15:18.530Z,99.99
2022-10-30T04:16:18.504Z,99.99
2022-10-30T04:17:18.484Z,99.99
2022-10-30T04:18:18.471Z,99.99
2022-10-30T04:19:18.445Z,99.99
2022-10-30T04:20:18.423Z,99.99
2022-10-30T04:21:18.421Z,99.99
2022-10-30T04:22:18.369Z,99.99
2022-10-30T04:23:18.355Z,99.99
2022-10-30T04:24:18.328Z,99.99
2022-10-30T04:25:18.310Z,99.99
2022-10-30T04:26:18.291Z,99.99
2022-10-30T04:27:18.255Z,99.99
2022-10-30T04:28:18.236Z,99.99
2022-10-30T04:29:18.210Z,99.99
2022-10-30T04:30:18.195Z,99.99
2022-10-30T04:31:18.176Z,99.99
2022-10-30T04:32:18.153Z,99.99
2022-10-30T04:33:18.146Z,99.99
2022-10-30T04:34:18.100Z,99.99
2022-10-30T04:35:18.084Z,99.99
2022-10-30T04:36:18.110Z,99.99
2022-10-30T04:37:18.105Z,99.99
2022-10-30T04:38:18.049Z,99.99
2022-10-30T04:39:17.994Z,99.99
2022-10-30T04:40:17.966Z,99.99
2022-10-30T04:41:17.975Z,99.99
2022-10-30T04:42:17.920Z,99.99
2022-10-30T04:43:17.916Z,99.99
2022-10-30T04:44:17.888Z,99.99
2022-10-30T04:45:17.862Z,99.99
2022-10-30T04:46:17.843Z,99.99
2022-10-30T04:47:17.943Z,99.99
2022-10-30T04:48:17.789Z,99.99
2022-10-30T04:49:17.768Z,99.99
2022-10-30T04:50:17.749Z,99.99
2022-10-30T04:51:17.725Z,99.99
2022-10-30T04:52:17.726Z,99.99
2022-10-30T04:53:17.696Z,99.99
2022-10-30T04:54:17.660Z,99.99
2022-10-30T04:55:17.678Z,99.99
2022-10-30T04:56:17.621Z,99.99
2022-10-30T04:57:17.591Z,99.99
2022-10-30T04:58:17.625Z,99.99
2022-10-30T04:59:17.549Z,99.99
2022-10-30T05:00:17.524Z,99.99
2022-10-30T05:01:17.631Z,99.99
2022-10-30T05:02:17.684Z,99.99
2022-10-30T05:03:17.459Z,99.99
2022-10-30T05:04:17.433Z,99.99
2022-10-30T05:05:17.424Z,99.99
2022-10-30T05:06:17.387Z,99.99
2022-10-30T05:07:17.366Z,99.99
2022-10-30T05:08:17.374Z,99.99
2022-10-30T05:09:17.319Z,99.99
2022-10-30T05:10:17.321Z,99.99
2022-10-30T05:11:17.276Z,99.99
2022-10-30T05:12:17.249Z,99.99
2022-10-30T05:13:17.243Z,99.99
2022-10-30T05:14:17.202Z,99.99
2022-10-30T05:15:17.192Z,99.99
2022-10-30T05:16:17.164Z,99.99
2022-10-30T05:17:17.186Z,99.99
2022-10-30T05:18:17.121Z,99.99
2022-10-30T05:19:17.109Z,99.99
2022-10-30T05:20:18.932Z,99.99
2022-10-30T05:21:17.048Z,99.99
2022-10-30T05:22:17.021Z,99.99
2022-10-30T05:23:17.029Z,99.99
2022-10-30T05:24:16.980Z,99.99
2022-10-30T05:25:16.973Z,99.99
2022-10-30T05:26:16.955Z,99.99
2022-10-30T05:27:16.910Z,99.99
2022-10-30T05:28:16.885Z,99.99
2022-10-30T05:29:16.879Z,99.99
2022-10-30T05:30:16.837Z,99.99
2022-10-30T05:31:16.820Z,99.99
2022-10-30T05:32:16.814Z,99.99
2022-10-30T05:33:16.777Z,99.99
2022-10-30T05:34:16.783Z,99.99
2022-10-30T05:35:16.746Z,99.99
2022-10-30T05:36:16.769Z,99.99
2022-10-30T05:37:16.678Z,99.99
2022-10-30T05:38:16.658Z,99.99
2022-10-30T05:39:16.633Z,99.99
2022-10-30T05:40:16.607Z,99.99
2022-10-30T05:41:16.590Z,99.99
2022-10-30T05:42:16.576Z,99.99
2022-10-30T05:43:16.545Z,99.99
2022-10-30T05:44:28.878Z,99.99
2022-10-30T05:45:16.496Z,99.99
2022-10-30T05:46:16.478Z,99.99
2022-10-30T05:47:16.452Z,99.99
2022-10-30T05:48:16.429Z,99.99
2022-10-30T05:49:16.417Z,99.99
2022-10-30T05:50:16.395Z,99.99
2022-10-30T05:51:16.360Z,99.99
2022-10-30T05:52:16.332Z,99.99
2022-10-30T05:53:16.305Z,99.99
2022-10-30T05:54:16.286Z,99.99
2022-10-30T05:55:16.264Z,99.99
2022-10-30T05:56:16.242Z,99.99
2022-10-30T05:57:16.217Z,99.99
2022-10-30T05:58:16.195Z,99.99
2022-10-30T05:59:16.180Z,99.99
2022-10-30T06:00:16.157Z,99.99
2022-10-30T06:01:16.151Z,99.99
2022-10-30T06:02:16.216Z,99.99
2022-10-30T06:03:16.085Z,99.99
2022-10-30T06:04:16.080Z,99.99
2022-10-30T06:05:16.034Z,99.99
2022-10-30T06:06:16.020Z,99.99
2022-10-30T06:07:15.992Z,99.99
2022-10-30T06:08:15.963Z,99.99
2022-10-30T06:09:15.938Z,99.99
2022-10-30T06:10:15.922Z,99.99
2022-10-30T06:11:15.911Z,99.99
2022-10-30T06:12:15.874Z,99.99
2022-10-30T06:13:15.848Z,99.99
2022-10-30T06:14:15.832Z,99.99
2022-10-30T06:15:15.805Z,99.99
2022-10-30T06:16:15.787Z,99.99
2022-10-30T06:17:15.760Z,99.99
2022-10-30T06:18:15.762Z,99.99
2022-10-30T06:19:18.911Z,99.99
2022-10-30T06:20:15.695Z,99.99
2022-10-30T06:21:15.661Z,99.99
2022-10-30T06:22:15.637Z,99.99
2022-10-30T06:23:15.612Z,99.99
2022-10-30T06:24:15.601Z,99.99
2022-10-30T06:25:15.581Z,99.99
2022-10-30T06:26:15.554Z,99.99
2022-10-30T06:27:15.536Z,99.99
2022-10-30T06:28:15.509Z,99.99
2022-10-30T06:29:15.477Z,99.99
2022-10-30T06:30:15.464Z,99.99
2022-10-30T06:31:15.456Z,99.99
2022-10-30T06:32:15.413Z,99.99
2022-10-30T06:33:15.391Z,99.99
2022-10-30T06:34:15.369Z,99.99
2022-10-30T06:35:15.338Z,99.99
2022-10-30T06:36:15.317Z,99.99
2022-10-30T06:37:15.324Z,99.99
2022-10-30T06:38:15.285Z,99.99
2022-10-30T06:39:15.256Z,99.99
2022-10-30T06:40:15.227Z,99.99
2022-10-30T06:41:15.208Z,99.99
2022-10-30T06:42:15.189Z,99.99
2022-10-30T06:43:15.150Z,99.99
2022-10-30T06:44:15.136Z,99.99
2022-10-30T06:45:15.109Z,99.99
2022-10-30T06:46:15.080Z,99.99
2022-10-30T06:47:15.060Z,99.99
2022-10-30T06:48:15.037Z,99.99
2022-10-30T06:49:15.042Z,99.99
2022-10-30T06:50:14.987Z,99.99
2022-10-30T06:51:14.966Z,99.99
2022-10-30T06:52:14.944Z,99.99
2022-10-30T06:53:14.914Z,99.99
2022-10-30T06:54:14.898Z,99.99
2022-10-30T06:55:14.872Z,99.99
2022-10-30T06:56:14.851Z,99.99
2022-10-30T06:57:14.820Z,99.99
2022-10-30T06:58:14.800Z,99.99
2022-10-30T06:59:14.779Z,99.99
2022-10-30T07:00:14.755Z,99.99
2022-10-30T07:01:14.741Z,99.99
2022-10-30T07:02:14.774Z,99.99
2022-10-30T07:03:14.690Z,99.99
2022-10-30T07:04:14.868Z,99.99
2022-10-30T07:05:14.646Z,99.99
2022-10-30T07:06:14.617Z,99.99
2022-10-30T07:07:14.598Z,99.99
2022-10-30T07:08:14.570Z,99.99
2022-10-30T07:09:14.554Z,99.99
2022-10-30T07:10:14.553Z,99.99
2022-10-30T07:11:14.702Z,99.99
2022-10-30T07:12:14.546Z,99.99
2022-10-30T07:13:14.459Z,99.99
2022-10-30T07:14:14.657Z,99.99
2022-10-30T07:15:14.837Z,99.99
2022-10-30T07:16:14.399Z,99.99
2022-10-30T07:17:14.375Z,99.99
2022-10-30T07:18:14.556Z,99.99
2022-10-30T07:19:14.323Z,99.99
2022-10-30T07:20:14.298Z,99.99
2022-10-30T07:21:14.283Z,99.99
2022-10-30T07:22:14.288Z,99.99
2022-10-30T07:23:14.233Z,99.99
2022-10-30T07:24:14.210Z,99.99
2022-10-30T07:25:14.191Z,99.99
2022-10-30T07:26:14.167Z,99.99
2022-10-30T07:27:14.131Z,99.99
2022-10-30T07:28:14.123Z,99.99
2022-10-30T07:29:14.090Z,99.99
2022-10-30T07:30:14.131Z,99.99
2022-10-30T07:31:20.029Z,99.99
2022-10-30T07:32:14.023Z,99.99
2022-10-30T07:33:14.037Z,99.99
2022-10-30T07:34:13.991Z,99.99
2022-10-30T07:35:13.980Z,99.99
2022-10-30T07:36:13.937Z,99.99
2022-10-30T07:37:13.911Z,99.99
2022-10-30T07:38:13.888Z,99.99
2022-10-30T07:39:13.866Z,99.99
2022-10-30T07:40:13.844Z,99.99
2022-10-30T07:41:13.839Z,99.99
2022-10-30T07:42:13.803Z,99.99
2022-10-30T07:43:13.790Z,99.99
2022-10-30T07:44:13.857Z,99.99
2022-10-30T07:45:13.867Z,99.99
2022-10-30T07:46:13.740Z,99.99
2022-10-30T07:47:13.709Z,99.99
2022-10-30T07:48:13.676Z,99.99
2022-10-30T07:49:13.652Z,99.99
2022-10-30T07:50:13.620Z,99.99
2022-10-30T07:51:13.606Z,99.99
2022-10-30T07:52:17.209Z,99.99
2022-10-30T07:53:13.554Z,99.99
2022-10-30T07:54:13.534Z,99.99
2022-10-30T07:55:13.541Z,99.99
2022-10-30T07:56:13.491Z,99.99
2022-10-30T07:57:13.468Z,99.99
2022-10-30T07:58:13.445Z,99.99
2022-10-30T07:59:13.419Z,99.99
2022-10-30T08:00:13.401Z,99.99
2022-10-30T08:01:13.640Z,99.99
2022-10-30T08:02:13.606Z,99.99
2022-10-30T08:03:13.338Z,99.99
2022-10-30T08:04:13.334Z,99.99
2022-10-30T08:05:13.343Z,99.99
2022-10-30T08:06:13.387Z,99.99
2022-10-30T08:07:13.266Z,99.99
2022-10-30T08:08:13.250Z,99.99
2022-10-30T08:09:13.281Z,99.99
2022-10-30T08:10:13.255Z,99.99
2022-10-30T08:11:13.176Z,99.99
2022-10-30T08:12:13.177Z,99.99
2022-10-30T08:13:13.146Z,99.99
2022-10-30T08:14:13.113Z,99.99
2022-10-30T08:15:13.096Z,99.99
2022-10-30T08:16:13.079Z,99.99
2022-10-30T08:17:13.056Z,99.99
2022-10-30T08:18:13.034Z,99.99
2022-10-30T08:19:13.017Z,99.99
2022-10-30T08:20:12.983Z,99.99
2022-10-30T08:21:13.172Z,99.99
2022-10-30T08:22:12.951Z,99.99
2022-10-30T08:23:12.927Z,99.99
2022-10-30T08:24:12.905Z,99.99
2022-10-30T08:25:12.885Z,99.99
2022-10-30T08:26:12.874Z,99.99
2022-10-30T08:27:12.845Z,99.99
2022-10-30T08:28:12.823Z,99.99
2022-10-30T08:29:12.809Z,99.99
2022-10-30T08:30:12.782Z,99.99
2022-10-30T08:31:12.770Z,99.99
2022-10-30T08:32:12.744Z,99.99
2022-10-30T08:33:12.723Z,99.99
2022-10-30T08:34:12.714Z,99.99
2022-10-30T08:35:17.199Z,99.99
2022-10-30T08:36:12.668Z,99.99
2022-10-30T08:37:12.647Z,99.99
2022-10-30T08:38:12.630Z,99.99
2022-10-30T08:39:12.614Z,99.99
2022-10-30T08:40:12.591Z,99.99
2022-10-30T08:41:12.572Z,99.99
2022-10-30T08:42:12.570Z,99.99
2022-10-30T08:43:12.540Z,99.99
2022-10-30T08:44:12.529Z,99.99
2022-10-30T08:45:12.547Z,99.99
2022-10-30T08:46:12.485Z,99.99
2022-10-30T08:47:12.466Z,99.99
2022-10-30T08:48:12.454Z,99.99
2022-10-30T08:49:12.436Z,99.99
2022-10-30T08:50:12.496Z,99.99
2022-10-30T08:51:12.388Z,99.99
2022-10-30T08:52:12.399Z,99.99
2022-10-30T08:53:12.359Z,99.99
2022-10-30T08:54:12.342Z,99.99
2022-10-30T08:55:12.321Z,99.99
2022-10-30T08:56:12.305Z,99.99
2022-10-30T08:57:12.285Z,99.99
2022-10-30T08:58:12.271Z,99.99
2022-10-30T08:59:15.713Z,99.99
2022-10-30T09:00:12.244Z,99.99
2022-10-30T09:01:12.265Z,99.99
2022-10-30T09:02:12.267Z,99.99
2022-10-30T09:03:12.178Z,99.99
2022-10-30T09:04:12.158Z,99.99
2022-10-30T09:05:12.143Z,99.99
2022-10-30T09:06:12.125Z,99.99
2022-10-30T09:07:13.135Z,99.99
2022-10-30T09:08:12.092Z,99.99
2022-10-30T09:09:12.069Z,99.99
2022-10-30T09:10:12.097Z,99.99
2022-10-30T09:11:12.047Z,99.99
2022-10-30T09:12:12.022Z,99.99
2022-10-30T09:13:12.001Z,99.99
2022-10-30T09:14:11.985Z,99.99
2022-10-30T09:15:11.961Z,99.99
2022-10-30T09:16:11.975Z,99.99
2022-10-30T09:17:11.942Z,99.99
2022-10-30T09:18:11.919Z,99.99
2022-10-30T09:19:16.196Z,99.99
2022-10-30T09:20:11.885Z,99.99
2022-10-30T09:21:11.857Z,99.99
2022-10-30T09:22:11.846Z,99.99
2022-10-30T09:23:11.824Z,99.99
2022-10-30T09:24:11.811Z,99.99
2022-10-30T09:25:11.800Z,99.99
2022-10-30T09:26:14.427Z,99.99
2022-10-30T09:27:11.772Z,99.99
2022-10-30T09:28:11.737Z,99.99
2022-10-30T09:29:11.719Z,99.99
2022-10-30T09:30:11.703Z,99.99
2022-10-30T09:31:11.693Z,99.99
2022-10-30T09:32:11.683Z,99.99
2022-10-30T09:33:11.655Z,99.99
2022-10-30T09:34:11.630Z,99.99
2022-10-30T09:35:11.620Z,99.99
2022-10-30T09:36:11.607Z,99.99
2022-10-30T09:37:11.579Z,99.99
2022-10-30T09:38:11.563Z,99.99
2022-10-30T09:39:11.549Z,99.99
2022-10-30T09:40:11.557Z,99.99
2022-10-30T09:41:11.507Z,99.99
2022-10-30T09:42:11.490Z,99.99
2022-10-30T09:43:11.480Z,99.99
2022-10-30T09:44:11.460Z,99.99
2022-10-30T09:46:11.422Z,99.99
2022-10-30T09:47:11.427Z,99.99
2022-10-30T09:48:11.393Z,99.99
2022-10-30T09:49:11.377Z,99.99
2022-10-30T09:50:11.386Z,99.99
2022-10-30T09:51:11.343Z,99.99
2022-10-30T09:52:11.331Z,99.99
2022-10-30T09:53:11.319Z,99.99
2022-10-30T09:54:11.297Z,99.99
2022-10-30T09:55:11.286Z,99.99
2022-10-30T09:56:11.269Z,99.99
2022-10-30T09:57:11.253Z,99.99
2022-10-30T09:58:11.246Z,99.99
2022-10-30T09:59:11.226Z,99.99
2022-10-30T10:00:11.222Z,99.99
2022-10-30T10:01:11.229Z,99.99
2022-10-30T10:02:11.220Z,99.99
2022-10-30T10:03:11.178Z,99.99
2022-10-30T10:04:11.162Z,99.99
2022-10-30T10:05:11.146Z,99.99
2022-10-30T10:06:11.130Z,99.99
2022-10-30T10:07:11.156Z,99.99
2022-10-30T10:08:11.115Z,99.99
2022-10-30T10:09:11.096Z,99.99
2022-10-30T10:10:11.124Z,99.99
2022-10-30T10:11:11.073Z,99.99
2022-10-30T10:12:11.060Z,99.99
2022-10-30T10:13:11.051Z,99.99
2022-10-30T10:14:11.050Z,99.99
2022-10-30T10:15:11.024Z,99.99
2022-10-30T10:16:11.013Z,99.99
2022-10-30T10:17:11.011Z,99.99
2022-10-30T10:18:10.992Z,99.99
2022-10-30T10:19:10.977Z,98.49
2022-10-30T10:20:10.971Z,99.02
2022-10-30T10:21:10.963Z,98.68
2022-10-30T10:22:10.961Z,99.75
2022-10-30T10:23:10.939Z,98.93
2022-10-30T10:24:10.935Z,98.83
2022-10-30T10:25:10.917Z,95.47
2022-10-30T10:26:10.921Z,97.56
2022-10-30T10:27:10.892Z,99.99
2022-10-30T10:28:10.887Z,99.02
2022-10-30T10:29:10.886Z,95.28
2022-10-30T10:30:10.867Z,93.76
2022-10-30T10:31:10.860Z,90.16
2022-10-30T10:32:10.854Z,89.24
2022-10-30T10:33:10.872Z,89.73
2022-10-30T10:34:10.829Z,94.79
2022-10-30T10:35:10.813Z,99.41
2022-10-30T10:36:10.813Z,99.99
2022-10-30T10:37:10.807Z,97.13
2022-10-30T10:38:10.791Z,91.96
2022-10-30T10:39:10.781Z,94.01
2022-10-30T10:40:10.778Z,89.67
2022-10-30T10:41:10.766Z,88.07
2022-10-30T10:42:10.759Z,87.29
2022-10-30T10:43:10.748Z,91.38
2022-10-30T10:44:10.738Z,90.11
2022-10-30T10:45:10.736Z,89.00
2022-10-30T10:46:10.728Z,86.22
2022-10-30T10:47:10.709Z,87.01
2022-10-30T10:48:10.721Z,93.57
2022-10-30T10:49:10.699Z,96.54
2022-10-30T10:50:10.692Z,95.57
2022-10-30T10:51:10.698Z,98.54
2022-10-30T10:52:10.674Z,94.78
2022-10-30T10:53:10.673Z,95.37
2022-10-30T10:54:10.653Z,96.88
2022-10-30T10:55:10.650Z,98.44
2022-10-30T10:56:10.647Z,98.24
2022-10-30T10:57:10.630Z,98.93
2022-10-30T10:58:10.626Z,99.90
2022-10-30T10:59:10.617Z,99.99
2022-10-30T11:00:10.610Z,98.54
2022-10-30T11:01:10.678Z,95.47
2022-10-30T11:02:10.676Z,97.27
2022-10-30T11:03:10.620Z,99.99
2022-10-30T11:04:10.584Z,99.99
2022-10-30T11:05:10.573Z,99.99
2022-10-30T11:06:10.560Z,99.99
2022-10-30T11:07:10.553Z,99.99
2022-10-30T11:08:10.548Z,99.99
2022-10-30T11:09:10.536Z,99.99
2022-10-30T11:10:10.540Z,99.99
2022-10-30T11:11:10.520Z,99.99
2022-10-30T11:12:10.519Z,99.99
2022-10-30T11:13:10.521Z,99.99
2022-10-30T11:14:10.500Z,99.99
2022-10-30T11:15:10.500Z,99.99
2022-10-30T11:16:10.481Z,99.90
2022-10-30T11:17:10.473Z,99.99
2022-10-30T11:18:10.493Z,99.99
2022-10-30T11:19:10.465Z,99.99
2022-10-30T11:20:10.448Z,99.99
2022-10-30T11:21:10.453Z,99.99
2022-10-30T11:22:10.431Z,98.97
2022-10-30T11:23:10.422Z,99.12
2022-10-30T11:24:10.420Z,99.95
2022-10-30T11:25:10.407Z,99.99
2022-10-30T11:26:10.395Z,99.99
2022-10-30T11:27:10.383Z,99.55
2022-10-30T11:28:10.381Z,99.37
2022-10-30T11:29:10.412Z,97.47
2022-10-30T11:30:10.368Z,97.91
2022-10-30T11:31:10.356Z,95.91
2022-10-30T11:32:10.350Z,97.13
2022-10-30T11:33:10.367Z,94.84
2022-10-30T11:34:10.326Z,96.59
2022-10-30T11:35:10.333Z,98.78
2022-10-30T11:36:15.461Z,99.99
2022-10-30T11:37:10.310Z,99.99
2022-10-30T11:38:10.292Z,99.99
2022-10-30T11:39:10.292Z,99.99
2022-10-30T11:40:10.282Z,98.63
2022-10-30T11:41:10.272Z,99.37
2022-10-30T11:42:10.266Z,99.37
2022-10-30T11:43:10.263Z,99.99
2022-10-30T11:44:10.250Z,99.46
2022-10-30T11:45:10.240Z,99.99
2022-10-30T11:46:10.313Z,99.99
2022-10-30T11:47:10.226Z,99.99
2022-10-30T11:48:14.069Z,99.99
2022-10-30T11:49:10.211Z,99.99
2022-10-30T11:50:10.220Z,99.99
2022-10-30T11:51:10.224Z,99.99
2022-10-30T11:52:10.189Z,99.99
2022-10-30T11:53:10.182Z,99.99
2022-10-30T11:54:10.172Z,99.99
2022-10-30T11:55:10.185Z,99.99
2022-10-30T11:56:10.155Z,99.99
2022-10-30T11:57:10.146Z,99.99
2022-10-30T11:58:10.137Z,99.99
2022-10-30T11:59:10.130Z,99.22
2022-10-30T12:00:10.121Z,96.98
2022-10-30T12:01:10.120Z,99.60
2022-10-30T12:02:10.387Z,99.99
2022-10-30T12:03:10.117Z,99.99
2022-10-30T12:04:10.091Z,99.95
2022-10-30T12:05:10.111Z,99.41
2022-10-30T12:06:10.075Z,99.99
2022-10-30T12:07:10.071Z,99.99
2022-10-30T12:08:10.065Z,99.99
2022-10-30T12:09:10.055Z,99.99
2022-10-30T12:10:10.070Z,98.54
2022-10-30T12:11:10.041Z,99.99
2022-10-30T12:12:10.031Z,99.99
2022-10-30T12:13:10.019Z,99.99
2022-10-30T12:14:10.011Z,97.86
2022-10-30T12:15:10.007Z,99.99
2022-10-30T12:16:09.995Z,99.99
2022-10-30T12:17:09.996Z,99.99
2022-10-30T12:18:09.981Z,99.99
2022-10-30T12:19:09.978Z,99.99
2022-10-30T12:20:09.969Z,99.99
2022-10-30T12:21:09.952Z,99.65
2022-10-30T12:22:10.011Z,99.99
2022-10-30T12:23:09.935Z,99.99
2022-10-30T12:24:09.922Z,99.99
2022-10-30T12:25:09.917Z,99.99
2022-10-30T12:26:09.914Z,99.99
2022-10-30T12:27:09.898Z,99.99
2022-10-30T12:28:09.910Z,99.99
2022-10-30T12:29:09.885Z,99.99
2022-10-30T12:30:10.420Z,99.99
2022-10-30T12:31:09.878Z,99.99
2022-10-30T12:32:09.870Z,99.99
2022-10-30T12:33:09.880Z,99.99
2022-10-30T12:35:09.835Z,99.99
2022-10-30T12:36:09.831Z,99.99
2022-10-30T12:37:09.836Z,99.99
2022-10-30T12:38:09.808Z,99.99
2022-10-30T12:39:09.807Z,99.99
2022-10-30T12:40:09.798Z,99.99
2022-10-30T12:41:09.780Z,99.99
2022-10-30T12:42:09.776Z,99.99
2022-10-30T12:43:09.764Z,99.99
2022-10-30T12:44:09.760Z,99.99
2022-10-30T12:45:09.748Z,99.99
2022-10-30T12:46:09.737Z,99.99
2022-10-30T12:47:09.732Z,99.46
2022-10-30T12:48:09.731Z,99.99
2022-10-30T12:49:09.717Z,99.99
2022-10-30T12:50:09.722Z,99.99
2022-10-30T12:51:09.711Z,99.27
2022-10-30T12:52:09.690Z,99.27
2022-10-30T12:53:09.684Z,98.78
2022-10-30T12:54:09.675Z,98.88
2022-10-30T12:55:09.700Z,99.99
2022-10-30T12:56:09.663Z,99.99